sensor_id;sensor_type;location;lat;lon;timestamp;temperature;humidity
54796;DHT22;40693;43.884;20.340;2023-03-23T00:02:25;281.90;2252.80
54796;DHT22;40693;43.884;20.340;2023-03-23T00:04:51;281.90;2252.80
54796;DHT22;40693;43.884;20.340;2023-03-23T00:07:17;281.90;2227.20
54796;DHT22;40693;43.884;20.340;2023-03-23T00:09:50;281.90;2227.20
54796;DHT22;40693;43.884;20.340;2023-03-23T00:12:23;281.70;2278.40
54796;DHT22;40693;43.884;20.340;2023-03-23T00:15:03;281.70;2278.40
54796;DHT22;40693;43.884;20.340;2023-03-23T00:17:30;281.70;2278.40
54796;DHT22;40693;43.884;20.340;2023-03-23T00:19:58;281.70;2278.40
54796;DHT22;40693;43.884;20.340;2023-03-23T00:22:27;281.60;2278.40
54796;DHT22;40693;43.884;20.340;2023-03-23T00:24:54;281.60;2278.40
54796;DHT22;40693;43.884;20.340;2023-03-23T00:27:22;281.60;2278.40
54796;DHT22;40693;43.884;20.340;2023-03-23T00:29:51;256.90;2252.80
54796;DHT22;40693;43.884;20.340;2023-03-23T00:32:22;256.90;2252.80
54796;DHT22;40693;43.884;20.340;2023-03-23T00:34:53;256.80;2252.80
54796;DHT22;40693;43.884;20.340;2023-03-23T00:37:19;256.80;2252.80
54796;DHT22;40693;43.884;20.340;2023-03-23T00:39:45;256.80;2252.80
54796;DHT22;40693;43.884;20.340;2023-03-23T00:42:13;256.80;2252.80
54796;DHT22;40693;43.884;20.340;2023-03-23T00:44:39;256.70;2252.80
54796;DHT22;40693;43.884;20.340;2023-03-23T00:47:05;256.70;2252.80
54796;DHT22;40693;43.884;20.340;2023-03-23T00:49:33;256.70;2252.80
54796;DHT22;40693;43.884;20.340;2023-03-23T00:52:01;256.70;2252.80
54796;DHT22;40693;43.884;20.340;2023-03-23T00:54:27;256.70;2252.80
54796;DHT22;40693;43.884;20.340;2023-03-23T00:56:53;256.60;2252.80
54796;DHT22;40693;43.884;20.340;2023-03-23T00:59:20;256.50;2252.80
54796;DHT22;40693;43.884;20.340;2023-03-23T01:01:47;256.50;2252.80
54796;DHT22;40693;43.884;20.340;2023-03-23T01:04:13;256.50;2252.80
54796;DHT22;40693;43.884;20.340;2023-03-23T01:06:42;256.50;2252.80
54796;DHT22;40693;43.884;20.340;2023-03-23T01:09:14;256.50;2252.80
54796;DHT22;40693;43.884;20.340;2023-03-23T01:11:44;256.50;2252.80
54796;DHT22;40693;43.884;20.340;2023-03-23T01:14:11;256.50;2252.80
54796;DHT22;40693;43.884;20.340;2023-03-23T01:16:37;256.40;2252.80
54796;DHT22;40693;43.884;20.340;2023-03-23T01:19:03;256.40;2252.80
54796;DHT22;40693;43.884;20.340;2023-03-23T01:21:28;256.40;2252.80
54796;DHT22;40693;43.884;20.340;2023-03-23T01:23:54;256.40;2252.80
54796;DHT22;40693;43.884;20.340;2023-03-23T01:26:22;256.30;2252.80
54796;DHT22;40693;43.884;20.340;2023-03-23T01:28:49;256.30;2252.80
54796;DHT22;40693;43.884;20.340;2023-03-23T01:31:18;256.20;2252.80
54796;DHT22;40693;43.884;20.340;2023-03-23T01:33:44;256.10;2252.80
54796;DHT22;40693;43.884;20.340;2023-03-23T01:36:15;256.20;2252.80
54796;DHT22;40693;43.884;20.340;2023-03-23T01:38:46;256.20;2252.80
54796;DHT22;40693;43.884;20.340;2023-03-23T01:41:13;256.20;2252.80
54796;DHT22;40693;43.884;20.340;2023-03-23T01:46:28;256.20;2252.80
54796;DHT22;40693;43.884;20.340;2023-03-23T01:48:56;256.10;2252.80
54796;DHT22;40693;43.884;20.340;2023-03-23T01:51:24;256.10;2252.80
54796;DHT22;40693;43.884;20.340;2023-03-23T01:53:56;256.10;2252.80
54796;DHT22;40693;43.884;20.340;2023-03-23T01:56:24;256.10;2252.80
54796;DHT22;40693;43.884;20.340;2023-03-23T01:58:53;256.10;2252.80
54796;DHT22;40693;43.884;20.340;2023-03-23T02:01:19;256.10;2252.80
54796;DHT22;40693;43.884;20.340;2023-03-23T02:03:47;256.10;2252.80
54796;DHT22;40693;43.884;20.340;2023-03-23T02:06:14;256.00;2252.80
54796;DHT22;40693;43.884;20.340;2023-03-23T02:08:41;256.00;2252.80
54796;DHT22;40693;43.884;20.340;2023-03-23T02:11:17;256.00;2252.80
54796;DHT22;40693;43.884;20.340;2023-03-23T02:13:44;256.00;2252.80
54796;DHT22;40693;43.884;20.340;2023-03-23T02:41:19;230.90;2252.80
54796;DHT22;40693;43.884;20.340;2023-03-23T02:43:47;231.00;2252.80
54796;DHT22;40693;43.884;20.340;2023-03-23T02:46:16;231.00;2252.80
54796;DHT22;40693;43.884;20.340;2023-03-23T02:48:43;231.00;2252.80
54796;DHT22;40693;43.884;20.340;2023-03-23T02:51:11;230.90;2252.80
54796;DHT22;40693;43.884;20.340;2023-03-23T02:53:40;230.90;2252.80
54796;DHT22;40693;43.884;20.340;2023-03-23T02:56:08;230.80;2252.80
54796;DHT22;40693;43.884;20.340;2023-03-23T02:58:36;230.80;2252.80
54796;DHT22;40693;43.884;20.340;2023-03-23T03:03:56;230.70;2252.80
54796;DHT22;40693;43.884;20.340;2023-03-23T03:09:10;230.60;2252.80
54796;DHT22;40693;43.884;20.340;2023-03-23T03:11:39;230.60;2252.80
54796;DHT22;40693;43.884;20.340;2023-03-23T03:14:13;230.60;2252.80
54796;DHT22;40693;43.884;20.340;2023-03-23T03:16:45;230.60;2252.80
54796;DHT22;40693;43.884;20.340;2023-03-23T03:19:31;230.60;2252.80
54796;DHT22;40693;43.884;20.340;2023-03-23T03:21:59;230.60;2252.80
54796;DHT22;40693;43.884;20.340;2023-03-23T03:24:27;230.60;2252.80
54796;DHT22;40693;43.884;20.340;2023-03-23T03:26:55;230.50;2252.80
54796;DHT22;40693;43.884;20.340;2023-03-23T03:29:44;230.50;2252.80
54796;DHT22;40693;43.884;20.340;2023-03-23T03:32:17;230.60;2252.80
54796;DHT22;40693;43.884;20.340;2023-03-23T03:34:45;230.50;2252.80
54796;DHT22;40693;43.884;20.340;2023-03-23T03:37:11;230.50;2252.80
54796;DHT22;40693;43.884;20.340;2023-03-23T03:39:38;230.40;2252.80
54796;DHT22;40693;43.884;20.340;2023-03-23T03:42:04;230.40;2252.80
54796;DHT22;40693;43.884;20.340;2023-03-23T03:44:31;205.70;2252.80
54796;DHT22;40693;43.884;20.340;2023-03-23T03:46:57;205.70;2252.80
54796;DHT22;40693;43.884;20.340;2023-03-23T03:49:23;205.70;2252.80
54796;DHT22;40693;43.884;20.340;2023-03-23T03:51:49;205.60;2252.80
54796;DHT22;40693;43.884;20.340;2023-03-23T03:54:14;205.60;2252.80
54796;DHT22;40693;43.884;20.340;2023-03-23T03:56:41;205.40;2252.80
54796;DHT22;40693;43.884;20.340;2023-03-23T03:59:08;205.40;2252.80
54796;DHT22;40693;43.884;20.340;2023-03-23T04:01:36;205.40;2252.80
54796;DHT22;40693;43.884;20.340;2023-03-23T04:04:03;205.40;2252.80
54796;DHT22;40693;43.884;20.340;2023-03-23T04:06:30;205.40;2252.80
54796;DHT22;40693;43.884;20.340;2023-03-23T04:08:57;205.40;2252.80
54796;DHT22;40693;43.884;20.340;2023-03-23T04:11:25;205.40;2252.80
54796;DHT22;40693;43.884;20.340;2023-03-23T04:13:51;205.40;2252.80
54796;DHT22;40693;43.884;20.340;2023-03-23T04:16:18;205.40;2252.80
54796;DHT22;40693;43.884;20.340;2023-03-23T04:18:44;205.40;2252.80
54796;DHT22;40693;43.884;20.340;2023-03-23T04:21:10;205.40;2252.80
54796;DHT22;40693;43.884;20.340;2023-03-23T04:23:36;205.40;2252.80
54796;DHT22;40693;43.884;20.340;2023-03-23T04:26:03;205.40;2252.80
54796;DHT22;40693;43.884;20.340;2023-03-23T04:28:29;205.40;2252.80
54796;DHT22;40693;43.884;20.340;2023-03-23T04:30:59;205.40;2252.80
54796;DHT22;40693;43.884;20.340;2023-03-23T04:33:27;205.40;2252.80
54796;DHT22;40693;43.884;20.340;2023-03-23T04:35:54;205.30;2252.80
54796;DHT22;40693;43.884;20.340;2023-03-23T04:38:22;205.30;2252.80
54796;DHT22;40693;43.884;20.340;2023-03-23T04:40:50;205.30;2252.80
54796;DHT22;40693;43.884;20.340;2023-03-23T04:43:20;205.20;2252.80
54796;DHT22;40693;43.884;20.340;2023-03-23T04:45:53;205.20;2252.80
54796;DHT22;40693;43.884;20.340;2023-03-23T04:48:22;205.20;2252.80
54796;DHT22;40693;43.884;20.340;2023-03-23T04:50:48;205.20;2252.80
54796;DHT22;40693;43.884;20.340;2023-03-23T04:53:16;205.20;2252.80
54796;DHT22;40693;43.884;20.340;2023-03-23T04:55:43;205.10;2252.80
54796;DHT22;40693;43.884;20.340;2023-03-23T04:58:08;205.10;2252.80
54796;DHT22;40693;43.884;20.340;2023-03-23T05:00:36;205.10;2252.80
54796;DHT22;40693;43.884;20.340;2023-03-23T05:03:02;205.10;2252.80
54796;DHT22;40693;43.884;20.340;2023-03-23T05:05:28;205.10;2252.80
54796;DHT22;40693;43.884;20.340;2023-03-23T05:07:57;205.10;2252.80
54796;DHT22;40693;43.884;20.340;2023-03-23T05:10:24;205.10;2252.80
54796;DHT22;40693;43.884;20.340;2023-03-23T05:12:50;205.10;2252.80
54796;DHT22;40693;43.884;20.340;2023-03-23T05:15:16;205.10;2252.80
54796;DHT22;40693;43.884;20.340;2023-03-23T05:17:42;205.20;2252.80
54796;DHT22;40693;43.884;20.340;2023-03-23T05:20:15;205.20;2252.80
54796;DHT22;40693;43.884;20.340;2023-03-23T05:22:45;205.20;2252.80
54796;DHT22;40693;43.884;20.340;2023-03-23T05:25:13;205.20;2252.80
54796;DHT22;40693;43.884;20.340;2023-03-23T05:27:39;205.40;2252.80
54796;DHT22;40693;43.884;20.340;2023-03-23T05:30:09;205.30;2252.80
54796;DHT22;40693;43.884;20.340;2023-03-23T05:32:34;205.30;2252.80
54796;DHT22;40693;43.884;20.340;2023-03-23T05:35:03;205.30;2252.80
54796;DHT22;40693;43.884;20.340;2023-03-23T05:37:29;205.40;2252.80
54796;DHT22;40693;43.884;20.340;2023-03-23T05:39:58;205.40;2252.80
54796;DHT22;40693;43.884;20.340;2023-03-23T05:42:31;205.40;2252.80
54796;DHT22;40693;43.884;20.340;2023-03-23T05:44:57;230.40;2252.80
54796;DHT22;40693;43.884;20.340;2023-03-23T05:47:24;205.60;2252.80
54796;DHT22;40693;43.884;20.340;2023-03-23T05:49:51;205.60;2252.80
54796;DHT22;40693;43.884;20.340;2023-03-23T05:52:18;205.60;2252.80
54796;DHT22;40693;43.884;20.340;2023-03-23T05:54:44;205.70;2252.80
54796;DHT22;40693;43.884;20.340;2023-03-23T05:57:10;205.70;2252.80
54796;DHT22;40693;43.884;20.340;2023-03-23T05:59:36;205.70;2252.80
54796;DHT22;40693;43.884;20.340;2023-03-23T06:02:03;230.40;2252.80
54796;DHT22;40693;43.884;20.340;2023-03-23T06:04:29;230.40;2252.80
54796;DHT22;40693;43.884;20.340;2023-03-23T06:06:55;230.40;2252.80
54796;DHT22;40693;43.884;20.340;2023-03-23T06:09:21;230.40;2252.80
54796;DHT22;40693;43.884;20.340;2023-03-23T06:11:49;230.50;2252.80
54796;DHT22;40693;43.884;20.340;2023-03-23T06:14:14;230.50;2252.80
54796;DHT22;40693;43.884;20.340;2023-03-23T06:16:41;230.60;2252.80
54796;DHT22;40693;43.884;20.340;2023-03-23T06:19:07;230.70;2252.80
54796;DHT22;40693;43.884;20.340;2023-03-23T06:21:33;230.70;2252.80
54796;DHT22;40693;43.884;20.340;2023-03-23T06:24:00;230.80;2252.80
54796;DHT22;40693;43.884;20.340;2023-03-23T06:26:30;230.80;2252.80
54796;DHT22;40693;43.884;20.340;2023-03-23T06:28:56;230.80;2252.80
54796;DHT22;40693;43.884;20.340;2023-03-23T06:31:23;230.80;2252.80
54796;DHT22;40693;43.884;20.340;2023-03-23T06:33:49;230.90;2252.80
54796;DHT22;40693;43.884;20.340;2023-03-23T06:36:15;231.00;2252.80
54796;DHT22;40693;43.884;20.340;2023-03-23T06:38:42;231.10;2252.80
54796;DHT22;40693;43.884;20.340;2023-03-23T06:41:08;231.20;2252.80
54796;DHT22;40693;43.884;20.340;2023-03-23T06:43:34;231.30;2252.80
54796;DHT22;40693;43.884;20.340;2023-03-23T06:46:02;256.00;2252.80
54796;DHT22;40693;43.884;20.340;2023-03-23T06:48:28;256.10;2252.80
54796;DHT22;40693;43.884;20.340;2023-03-23T06:50:54;256.20;2252.80
54796;DHT22;40693;43.884;20.340;2023-03-23T06:53:19;256.30;2252.80
54796;DHT22;40693;43.884;20.340;2023-03-23T06:55:46;256.40;2252.80
54796;DHT22;40693;43.884;20.340;2023-03-23T06:58:12;256.40;2252.80
54796;DHT22;40693;43.884;20.340;2023-03-23T07:00:38;256.60;2252.80
54796;DHT22;40693;43.884;20.340;2023-03-23T07:03:06;256.70;2252.80
54796;DHT22;40693;43.884;20.340;2023-03-23T07:05:33;256.80;2252.80
54796;DHT22;40693;43.884;20.340;2023-03-23T07:07:59;256.90;2252.80
54796;DHT22;40693;43.884;20.340;2023-03-23T07:10:25;281.60;2278.40
54796;DHT22;40693;43.884;20.340;2023-03-23T07:12:51;281.60;2278.40
54796;DHT22;40693;43.884;20.340;2023-03-23T07:15:16;281.80;2278.40
54796;DHT22;40693;43.884;20.340;2023-03-23T07:17:42;282.00;2278.40
54796;DHT22;40693;43.884;20.340;2023-03-23T07:20:09;282.10;2278.40
54796;DHT22;40693;43.884;20.340;2023-03-23T07:22:35;282.20;2278.40
54796;DHT22;40693;43.884;20.340;2023-03-23T07:25:00;282.30;2278.40
54796;DHT22;40693;43.884;20.340;2023-03-23T07:27:27;282.40;2278.40
54796;DHT22;40693;43.884;20.340;2023-03-23T07:29:53;282.50;2278.40
54796;DHT22;40693;43.884;20.340;2023-03-23T07:32:18;307.20;2304.00
54796;DHT22;40693;43.884;20.340;2023-03-23T07:34:44;307.20;2304.00
54796;DHT22;40693;43.884;20.340;2023-03-23T07:37:10;307.30;2304.00
54796;DHT22;40693;43.884;20.340;2023-03-23T07:39:36;307.30;2304.00
54796;DHT22;40693;43.884;20.340;2023-03-23T07:42:02;307.40;2304.00
54796;DHT22;40693;43.884;20.340;2023-03-23T07:44:27;307.50;2304.00
54796;DHT22;40693;43.884;20.340;2023-03-23T07:46:53;307.70;2304.00
54796;DHT22;40693;43.884;20.340;2023-03-23T07:49:19;307.80;2304.00
54796;DHT22;40693;43.884;20.340;2023-03-23T07:51:45;307.90;2304.00
54796;DHT22;40693;43.884;20.340;2023-03-23T07:54:12;308.00;2304.00
54796;DHT22;40693;43.884;20.340;2023-03-23T07:56:39;308.10;2304.00
54796;DHT22;40693;43.884;20.340;2023-03-23T07:59:06;332.90;2329.60
54796;DHT22;40693;43.884;20.340;2023-03-23T08:01:32;333.00;2278.40
54796;DHT22;40693;43.884;20.340;2023-03-23T08:03:58;333.20;2304.00
54796;DHT22;40693;43.884;20.340;2023-03-23T08:06:25;333.20;2252.80
54796;DHT22;40693;43.884;20.340;2023-03-23T08:08:51;333.40;2227.20
54796;DHT22;40693;43.884;20.340;2023-03-23T08:11:17;333.50;2252.80
54796;DHT22;40693;43.884;20.340;2023-03-23T08:13:44;333.70;2201.60
54796;DHT22;40693;43.884;20.340;2023-03-23T08:16:10;358.50;2176.00
54796;DHT22;40693;43.884;20.340;2023-03-23T08:18:37;358.60;2176.00
54796;DHT22;40693;43.884;20.340;2023-03-23T08:21:06;358.60;2124.80
54796;DHT22;40693;43.884;20.340;2023-03-23T08:23:35;358.80;2150.40
54796;DHT22;40693;43.884;20.340;2023-03-23T08:26:03;359.00;2073.60
54796;DHT22;40693;43.884;20.340;2023-03-23T08:28:30;359.00;2073.60
54796;DHT22;40693;43.884;20.340;2023-03-23T08:30:55;359.20;2124.80
54796;DHT22;40693;43.884;20.340;2023-03-23T08:33:22;384.00;2073.60
54796;DHT22;40693;43.884;20.340;2023-03-23T08:35:57;384.00;2073.60
54796;DHT22;40693;43.884;20.340;2023-03-23T08:38:24;384.20;2124.80
54796;DHT22;40693;43.884;20.340;2023-03-23T08:40:50;384.40;2073.60
54796;DHT22;40693;43.884;20.340;2023-03-23T08:43:17;384.50;1971.20
54796;DHT22;40693;43.884;20.340;2023-03-23T08:45:43;384.70;1945.60
54796;DHT22;40693;43.884;20.340;2023-03-23T08:48:09;384.80;2022.40
54796;DHT22;40693;43.884;20.340;2023-03-23T08:50:36;409.70;1945.60
54796;DHT22;40693;43.884;20.340;2023-03-23T08:53:02;409.80;1894.40
54796;DHT22;40693;43.884;20.340;2023-03-23T08:55:28;409.80;1894.40
54796;DHT22;40693;43.884;20.340;2023-03-23T08:57:54;410.00;1894.40
54796;DHT22;40693;43.884;20.340;2023-03-23T09:00:21;410.00;1868.80
54796;DHT22;40693;43.884;20.340;2023-03-23T09:02:51;410.20;1843.20
54796;DHT22;40693;43.884;20.340;2023-03-23T09:05:19;410.20;1843.20
54796;DHT22;40693;43.884;20.340;2023-03-23T09:07:49;410.40;1945.60
54796;DHT22;40693;43.884;20.340;2023-03-23T09:10:16;435.20;1894.40
54796;DHT22;40693;43.884;20.340;2023-03-23T09:12:43;435.40;1894.40
54796;DHT22;40693;43.884;20.340;2023-03-23T09:15:11;435.50;1894.40
54796;DHT22;40693;43.884;20.340;2023-03-23T09:17:40;435.60;1843.20
54796;DHT22;40693;43.884;20.340;2023-03-23T09:20:07;435.80;1894.40
54796;DHT22;40693;43.884;20.340;2023-03-23T09:22:43;436.00;1792.00
54796;DHT22;40693;43.884;20.340;2023-03-23T09:25:11;436.10;1817.60
54796;DHT22;40693;43.884;20.340;2023-03-23T09:27:38;460.90;1792.00
54796;DHT22;40693;43.884;20.340;2023-03-23T09:30:06;461.00;1766.40
54796;DHT22;40693;43.884;20.340;2023-03-23T09:32:34;461.20;1792.00
54796;DHT22;40693;43.884;20.340;2023-03-23T09:35:05;461.30;1715.20
54796;DHT22;40693;43.884;20.340;2023-03-23T09:37:33;461.50;1689.60
54796;DHT22;40693;43.884;20.340;2023-03-23T09:40:02;461.70;1664.00
54796;DHT22;40693;43.884;20.340;2023-03-23T09:50:35;486.80;1638.40
54796;DHT22;40693;43.884;20.340;2023-03-23T09:53:26;487.00;1638.40
54796;DHT22;40693;43.884;20.340;2023-03-23T09:55:53;487.10;1587.20
54796;DHT22;40693;43.884;20.340;2023-03-23T09:58:31;512.00;1561.60
54796;DHT22;40693;43.884;20.340;2023-03-23T10:01:07;512.10;1510.40
54796;DHT22;40693;43.884;20.340;2023-03-23T10:03:39;512.20;1484.80
54796;DHT22;40693;43.884;20.340;2023-03-23T10:06:09;512.30;1459.20
54796;DHT22;40693;43.884;20.340;2023-03-23T10:08:35;512.30;1484.80
54796;DHT22;40693;43.884;20.340;2023-03-23T10:16:33;512.60;1484.80
54796;DHT22;40693;43.884;20.340;2023-03-23T10:21:53;512.90;1484.80
54796;DHT22;40693;43.884;20.340;2023-03-23T10:24:26;512.90;1510.40
54796;DHT22;40693;43.884;20.340;2023-03-23T10:29:42;537.90;1382.40
54796;DHT22;40693;43.884;20.340;2023-03-23T10:32:19;538.00;1484.80
54796;DHT22;40693;43.884;20.340;2023-03-23T10:34:59;538.20;1408.00
54796;DHT22;40693;43.884;20.340;2023-03-23T10:37:29;538.30;1382.40
54796;DHT22;40693;43.884;20.340;2023-03-23T10:39:58;538.40;1356.80
54796;DHT22;40693;43.884;20.340;2023-03-23T10:42:30;538.40;1382.40
54796;DHT22;40693;43.884;20.340;2023-03-23T10:44:59;563.20;1408.00
54796;DHT22;40693;43.884;20.340;2023-03-23T10:47:26;563.30;1382.40
54796;DHT22;40693;43.884;20.340;2023-03-23T10:49:59;563.60;1356.80
54796;DHT22;40693;43.884;20.340;2023-03-23T10:52:33;563.70;1356.80
54796;DHT22;40693;43.884;20.340;2023-03-23T10:55:16;563.80;1305.60
54796;DHT22;40693;43.884;20.340;2023-03-23T10:57:45;564.00;1280.00
54796;DHT22;40693;43.884;20.340;2023-03-23T11:02:56;588.90;1356.80
54796;DHT22;40693;43.884;20.340;2023-03-23T11:05:27;589.10;1280.00
54796;DHT22;40693;43.884;20.340;2023-03-23T11:07:56;589.20;1305.60
54796;DHT22;40693;43.884;20.340;2023-03-23T11:10:27;589.20;1228.80
54796;DHT22;40693;43.884;20.340;2023-03-23T11:12:56;589.10;1228.80
54796;DHT22;40693;43.884;20.340;2023-03-23T11:15:38;589.30;1305.60
54796;DHT22;40693;43.884;20.340;2023-03-23T11:18:09;589.60;1280.00
54796;DHT22;40693;43.884;20.340;2023-03-23T11:20:44;614.50;1228.80
54796;DHT22;40693;43.884;20.340;2023-03-23T11:23:32;614.40;1280.00
54796;DHT22;40693;43.884;20.340;2023-03-23T11:28:30;614.50;1177.60
54796;DHT22;40693;43.884;20.340;2023-03-23T11:30:58;614.50;1203.20
54796;DHT22;40693;43.884;20.340;2023-03-23T11:33:28;614.50;1254.40
54796;DHT22;40693;43.884;20.340;2023-03-23T11:35:54;614.70;1280.00
54796;DHT22;40693;43.884;20.340;2023-03-23T11:38:22;614.80;1228.80
54796;DHT22;40693;43.884;20.340;2023-03-23T11:40:50;614.80;1203.20
54796;DHT22;40693;43.884;20.340;2023-03-23T11:43:24;614.80;1203.20
54796;DHT22;40693;43.884;20.340;2023-03-23T11:45:54;614.80;1152.00
54796;DHT22;40693;43.884;20.340;2023-03-23T11:48:43;614.90;1152.00
54796;DHT22;40693;43.884;20.340;2023-03-23T11:51:16;615.10;1177.60
54796;DHT22;40693;43.884;20.340;2023-03-23T11:53:55;615.20;1228.80
54796;DHT22;40693;43.884;20.340;2023-03-23T11:56:27;615.20;1203.20
54796;DHT22;40693;43.884;20.340;2023-03-23T11:58:55;640.00;1203.20
54796;DHT22;40693;43.884;20.340;2023-03-23T12:01:24;640.20;1177.60
54796;DHT22;40693;43.884;20.340;2023-03-23T12:12:29;640.50;1152.00
54796;DHT22;40693;43.884;20.340;2023-03-23T12:15:22;640.50;1203.20
54796;DHT22;40693;43.884;20.340;2023-03-23T12:18:15;640.80;1152.00
54796;DHT22;40693;43.884;20.340;2023-03-23T12:20:53;640.50;1126.40
54796;DHT22;40693;43.884;20.340;2023-03-23T12:31:53;665.60;1177.60
54796;DHT22;40693;43.884;20.340;2023-03-23T12:44:50;665.80;1152.00
54796;DHT22;40693;43.884;20.340;2023-03-23T12:49:59;666.00;1152.00
54796;DHT22;40693;43.884;20.340;2023-03-23T12:52:28;665.70;1100.80
54796;DHT22;40693;43.884;20.340;2023-03-23T12:55:30;665.60;1100.80
54796;DHT22;40693;43.884;20.340;2023-03-23T12:58:19;665.60;1100.80
54796;DHT22;40693;43.884;20.340;2023-03-23T13:00:52;640.60;1075.20
54796;DHT22;40693;43.884;20.340;2023-03-23T13:03:22;640.70;1100.80
54796;DHT22;40693;43.884;20.340;2023-03-23T13:08:39;640.50;1075.20
54796;DHT22;40693;43.884;20.340;2023-03-23T13:11:19;640.50;1100.80
54796;DHT22;40693;43.884;20.340;2023-03-23T13:13:52;640.60;1152.00
54796;DHT22;40693;43.884;20.340;2023-03-23T13:25:13;665.60;1152.00
54796;DHT22;40693;43.884;20.340;2023-03-23T13:27:40;665.70;1100.80
54796;DHT22;40693;43.884;20.340;2023-03-23T13:30:19;665.90;1126.40
54796;DHT22;40693;43.884;20.340;2023-03-23T13:32:50;666.00;1126.40
54796;DHT22;40693;43.884;20.340;2023-03-23T13:35:18;665.90;1075.20
54796;DHT22;40693;43.884;20.340;2023-03-23T13:37:51;665.80;1075.20
54796;DHT22;40693;43.884;20.340;2023-03-23T13:40:29;666.00;1075.20
54796;DHT22;40693;43.884;20.340;2023-03-23T13:42:59;666.10;1075.20
54796;DHT22;40693;43.884;20.340;2023-03-23T13:50:53;666.40;1100.80
54796;DHT22;40693;43.884;20.340;2023-03-23T13:53:29;666.40;1126.40
54796;DHT22;40693;43.884;20.340;2023-03-23T13:56:17;666.40;1126.40
54796;DHT22;40693;43.884;20.340;2023-03-23T13:59:13;666.50;1075.20
54796;DHT22;40693;43.884;20.340;2023-03-23T14:01:40;691.40;1100.80
54796;DHT22;40693;43.884;20.340;2023-03-23T14:04:14;691.40;1049.60
54796;DHT22;40693;43.884;20.340;2023-03-23T14:06:41;691.40;1075.20
54796;DHT22;40693;43.884;20.340;2023-03-23T14:09:19;691.40;1100.80
54796;DHT22;40693;43.884;20.340;2023-03-23T14:12:01;691.50;1075.20
54796;DHT22;40693;43.884;20.340;2023-03-23T14:14:40;691.60;1049.60
54796;DHT22;40693;43.884;20.340;2023-03-23T14:17:28;691.60;1049.60
54796;DHT22;40693;43.884;20.340;2023-03-23T14:19:57;691.60;1024.00
54796;DHT22;40693;43.884;20.340;2023-03-23T14:22:25;691.60;1024.00
54796;DHT22;40693;43.884;20.340;2023-03-23T14:24:53;691.50;1049.60
54796;DHT22;40693;43.884;20.340;2023-03-23T14:27:24;691.60;1024.00
54796;DHT22;40693;43.884;20.340;2023-03-23T14:30:04;691.60;998.40
54796;DHT22;40693;43.884;20.340;2023-03-23T14:32:32;666.20;998.40
54796;DHT22;40693;43.884;20.340;2023-03-23T14:35:00;665.70;1024.00
54796;DHT22;40693;43.884;20.340;2023-03-23T14:37:31;665.70;1049.60
54796;DHT22;40693;43.884;20.340;2023-03-23T14:39:58;665.60;1049.60
54796;DHT22;40693;43.884;20.340;2023-03-23T14:42:32;640.60;1024.00
54796;DHT22;40693;43.884;20.340;2023-03-23T14:44:59;640.60;1024.00
54796;DHT22;40693;43.884;20.340;2023-03-23T14:47:31;640.80;1049.60
54796;DHT22;40693;43.884;20.340;2023-03-23T14:50:00;640.70;1075.20
54796;DHT22;40693;43.884;20.340;2023-03-23T14:52:28;640.70;1024.00
54796;DHT22;40693;43.884;20.340;2023-03-23T14:54:55;640.60;1024.00
54796;DHT22;40693;43.884;20.340;2023-03-23T14:59:49;640.60;1024.00
54796;DHT22;40693;43.884;20.340;2023-03-23T15:02:44;640.10;1024.00
54796;DHT22;40693;43.884;20.340;2023-03-23T15:05:17;640.50;1024.00
54796;DHT22;40693;43.884;20.340;2023-03-23T15:07:48;640.50;1024.00
54796;DHT22;40693;43.884;20.340;2023-03-23T15:10:18;640.30;998.40
54796;DHT22;40693;43.884;20.340;2023-03-23T15:12:46;640.20;1049.60
54796;DHT22;40693;43.884;20.340;2023-03-23T15:15:21;615.30;1075.20
54796;DHT22;40693;43.884;20.340;2023-03-23T15:17:47;615.30;1075.20
54796;DHT22;40693;43.884;20.340;2023-03-23T15:20:27;615.20;1075.20
54796;DHT22;40693;43.884;20.340;2023-03-23T15:22:53;615.30;1075.20
54796;DHT22;40693;43.884;20.340;2023-03-23T15:28:09;615.20;1049.60
54796;DHT22;40693;43.884;20.340;2023-03-23T15:30:50;615.20;1049.60
54796;DHT22;40693;43.884;20.340;2023-03-23T15:33:17;615.30;1049.60
54796;DHT22;40693;43.884;20.340;2023-03-23T15:35:50;640.00;1075.20
54796;DHT22;40693;43.884;20.340;2023-03-23T15:40:53;615.20;1049.60
54796;DHT22;40693;43.884;20.340;2023-03-23T15:43:33;615.20;1075.20
54796;DHT22;40693;43.884;20.340;2023-03-23T15:51:12;615.20;1100.80
54796;DHT22;40693;43.884;20.340;2023-03-23T15:53:39;615.10;1100.80
54796;DHT22;40693;43.884;20.340;2023-03-23T15:56:08;615.20;1075.20
54796;DHT22;40693;43.884;20.340;2023-03-23T15:58:35;615.20;1100.80
54796;DHT22;40693;43.884;20.340;2023-03-23T16:01:04;615.20;1100.80
54796;DHT22;40693;43.884;20.340;2023-03-23T16:03:43;615.20;1100.80
54796;DHT22;40693;43.884;20.340;2023-03-23T16:06:11;615.20;1126.40
54796;DHT22;40693;43.884;20.340;2023-03-23T16:08:37;615.10;1126.40
54796;DHT22;40693;43.884;20.340;2023-03-23T16:11:08;615.10;1126.40
54796;DHT22;40693;43.884;20.340;2023-03-23T16:13:35;615.20;1126.40
54796;DHT22;40693;43.884;20.340;2023-03-23T16:16:01;615.20;1126.40
54796;DHT22;40693;43.884;20.340;2023-03-23T16:18:27;615.10;1126.40
54796;DHT22;40693;43.884;20.340;2023-03-23T16:20:53;615.00;1152.00
54796;DHT22;40693;43.884;20.340;2023-03-23T16:23:18;614.90;1126.40
54796;DHT22;40693;43.884;20.340;2023-03-23T16:25:44;614.80;1152.00
54796;DHT22;40693;43.884;20.340;2023-03-23T16:28:11;614.80;1152.00
54796;DHT22;40693;43.884;20.340;2023-03-23T16:30:38;614.70;1152.00
54796;DHT22;40693;43.884;20.340;2023-03-23T16:33:04;614.70;1152.00
54796;DHT22;40693;43.884;20.340;2023-03-23T16:35:30;614.60;1152.00
54796;DHT22;40693;43.884;20.340;2023-03-23T16:37:57;614.60;1152.00
54796;DHT22;40693;43.884;20.340;2023-03-23T16:40:23;614.50;1126.40
54796;DHT22;40693;43.884;20.340;2023-03-23T16:42:49;614.40;1126.40
54796;DHT22;40693;43.884;20.340;2023-03-23T16:45:16;589.70;1126.40
54796;DHT22;40693;43.884;20.340;2023-03-23T16:47:42;589.60;1152.00